sensor_id;sensor_type;location;lat;lon;timestamp;P1;durP1;ratioP1;P2;durP2;ratioP2
41629;SDS011;27322;49.488;8.480;2022-08-23T00:01:28;4.18;;;1.13;;
41629;SDS011;27322;49.488;8.480;2022-08-23T00:03:58;2.83;;;1.23;;
41629;SDS011;27322;49.488;8.480;2022-08-23T00:06:27;2.65;;;1.10;;
41629;SDS011;27322;49.488;8.480;2022-08-23T00:08:53;2.03;;;0.98;;
41629;SDS011;27322;49.488;8.480;2022-08-23T00:11:30;2.58;;;0.90;;
41629;SDS011;27322;49.488;8.480;2022-08-23T00:13:57;2.83;;;1.10;;
41629;SDS011;27322;49.488;8.480;2022-08-23T00:16:25;4.20;;;1.20;;
41629;SDS011;27322;49.488;8.480;2022-08-23T00:18:52;2.28;;;1.10;;
41629;SDS011;27322;49.488;8.480;2022-08-23T00:21:17;4.57;;;1.10;;
41629;SDS011;27322;49.488;8.480;2022-08-23T00:23:43;3.60;;;1.38;;
41629;SDS011;27322;49.488;8.480;2022-08-23T00:26:09;3.90;;;1.00;;
41629;SDS011;27322;49.488;8.480;2022-08-23T00:28:35;3.80;;;1.20;;
41629;SDS011;27322;49.488;8.480;2022-08-23T00:31:01;3.20;;;1.20;;
41629;SDS011;27322;49.488;8.480;2022-08-23T00:33:27;3.30;;;1.00;;
41629;SDS011;27322;49.488;8.480;2022-08-23T00:35:53;1.67;;;1.02;;
41629;SDS011;27322;49.488;8.480;2022-08-23T00:38:18;2.88;;;0.95;;
41629;SDS011;27322;49.488;8.480;2022-08-23T00:40:48;4.43;;;1.20;;
41629;SDS011;27322;49.488;8.480;2022-08-23T00:43:17;2.85;;;0.90;;
41629;SDS011;27322;49.488;8.480;2022-08-23T00:46:09;2.88;;;1.00;;
41629;SDS011;27322;49.488;8.480;2022-08-23T00:49:04;2.35;;;0.90;;
41629;SDS011;27322;49.488;8.480;2022-08-23T00:54:15;2.22;;;0.90;;
41629;SDS011;27322;49.488;8.480;2022-08-23T00:56:42;2.72;;;1.17;;
41629;SDS011;27322;49.488;8.480;2022-08-23T00:59:08;1.95;;;0.90;;
41629;SDS011;27322;49.488;8.480;2022-08-23T01:01:34;3.70;;;1.08;;
41629;SDS011;27322;49.488;8.480;2022-08-23T01:04:00;4.90;;;1.05;;
41629;SDS011;27322;49.488;8.480;2022-08-23T01:06:28;2.95;;;1.17;;
41629;SDS011;27322;49.488;8.480;2022-08-23T01:09:07;2.92;;;1.20;;
41629;SDS011;27322;49.488;8.480;2022-08-23T01:11:41;2.38;;;1.08;;
41629;SDS011;27322;49.488;8.480;2022-08-23T01:14:11;2.75;;;1.20;;
41629;SDS011;27322;49.488;8.480;2022-08-23T01:16:46;3.65;;;0.95;;
41629;SDS011;27322;49.488;8.480;2022-08-23T01:19:23;3.17;;;1.13;;
41629;SDS011;27322;49.488;8.480;2022-08-23T01:22:00;2.72;;;1.00;;
41629;SDS011;27322;49.488;8.480;2022-08-23T01:24:28;3.03;;;1.20;;
41629;SDS011;27322;49.488;8.480;2022-08-23T01:26:54;5.88;;;1.52;;
41629;SDS011;27322;49.488;8.480;2022-08-23T01:29:19;2.92;;;1.20;;
41629;SDS011;27322;49.488;8.480;2022-08-23T01:31:45;4.32;;;1.15;;
41629;SDS011;27322;49.488;8.480;2022-08-23T01:34:11;3.05;;;1.13;;
41629;SDS011;27322;49.488;8.480;2022-08-23T01:36:38;2.88;;;1.13;;
41629;SDS011;27322;49.488;8.480;2022-08-23T01:39:07;2.65;;;1.02;;
41629;SDS011;27322;49.488;8.480;2022-08-23T01:41:33;2.63;;;1.02;;
41629;SDS011;27322;49.488;8.480;2022-08-23T01:44:02;2.53;;;1.10;;
41629;SDS011;27322;49.488;8.480;2022-08-23T01:46:29;3.15;;;1.23;;
41629;SDS011;27322;49.488;8.480;2022-08-23T01:48:55;3.97;;;1.25;;
41629;SDS011;27322;49.488;8.480;2022-08-23T01:51:22;3.20;;;1.20;;
41629;SDS011;27322;49.488;8.480;2022-08-23T01:53:48;3.08;;;1.13;;
41629;SDS011;27322;49.488;8.480;2022-08-23T01:56:14;2.92;;;1.20;;
41629;SDS011;27322;49.488;8.480;2022-08-23T01:58:44;3.30;;;1.10;;
41629;SDS011;27322;49.488;8.480;2022-08-23T02:01:10;2.72;;;1.10;;
41629;SDS011;27322;49.488;8.480;2022-08-23T02:03:36;6.50;;;1.30;;
41629;SDS011;27322;49.488;8.480;2022-08-23T02:06:02;3.05;;;1.10;;
41629;SDS011;27322;49.488;8.480;2022-08-23T02:08:29;2.72;;;1.02;;
41629;SDS011;27322;49.488;8.480;2022-08-23T02:11:14;4.57;;;1.20;;
41629;SDS011;27322;49.488;8.480;2022-08-23T02:13:42;2.40;;;1.08;;
41629;SDS011;27322;49.488;8.480;2022-08-23T02:16:09;2.70;;;1.20;;
41629;SDS011;27322;49.488;8.480;2022-08-23T02:18:35;2.35;;;0.90;;
41629;SDS011;27322;49.488;8.480;2022-08-23T02:21:02;2.90;;;1.05;;
41629;SDS011;27322;49.488;8.480;2022-08-23T02:23:28;3.50;;;1.20;;
41629;SDS011;27322;49.488;8.480;2022-08-23T02:25:53;4.18;;;1.10;;
41629;SDS011;27322;49.488;8.480;2022-08-23T02:28:20;3.00;;;1.50;;
41629;SDS011;27322;49.488;8.480;2022-08-23T02:30:47;3.50;;;1.10;;
41629;SDS011;27322;49.488;8.480;2022-08-23T02:33:13;2.85;;;1.20;;
41629;SDS011;27322;49.488;8.480;2022-08-23T02:35:40;3.40;;;1.27;;
41629;SDS011;27322;49.488;8.480;2022-08-23T02:38:07;2.70;;;1.30;;
41629;SDS011;27322;49.488;8.480;2022-08-23T02:40:35;2.35;;;1.08;;
41629;SDS011;27322;49.488;8.480;2022-08-23T02:43:02;3.58;;;1.52;;
41629;SDS011;27322;49.488;8.480;2022-08-23T02:45:30;3.72;;;1.10;;
41629;SDS011;27322;49.488;8.480;2022-08-23T02:47:56;2.88;;;1.30;;
41629;SDS011;27322;49.488;8.480;2022-08-23T02:50:22;4.35;;;1.40;;
41629;SDS011;27322;49.488;8.480;2022-08-23T02:52:49;4.43;;;1.50;;
41629;SDS011;27322;49.488;8.480;2022-08-23T02:55:14;3.00;;;1.33;;
41629;SDS011;27322;49.488;8.480;2022-08-23T02:57:40;3.60;;;1.50;;
41629;SDS011;27322;49.488;8.480;2022-08-23T03:00:07;3.30;;;1.38;;
41629;SDS011;27322;49.488;8.480;2022-08-23T03:02:35;2.22;;;1.00;;
41629;SDS011;27322;49.488;8.480;2022-08-23T03:05:02;3.17;;;1.13;;
41629;SDS011;27322;49.488;8.480;2022-08-23T03:07:29;3.95;;;1.33;;
41629;SDS011;27322;49.488;8.480;2022-08-23T03:09:55;3.00;;;1.25;;
41629;SDS011;27322;49.488;8.480;2022-08-23T03:12:21;3.03;;;1.13;;
41629;SDS011;27322;49.488;8.480;2022-08-23T03:14:47;4.30;;;1.30;;
41629;SDS011;27322;49.488;8.480;2022-08-23T03:17:13;3.88;;;1.60;;
41629;SDS011;27322;49.488;8.480;2022-08-23T03:19:39;4.15;;;1.63;;
41629;SDS011;27322;49.488;8.480;2022-08-23T03:22:05;4.60;;;1.90;;
41629;SDS011;27322;49.488;8.480;2022-08-23T03:24:30;3.78;;;1.60;;
41629;SDS011;27322;49.488;8.480;2022-08-23T03:26:56;5.15;;;1.77;;
41629;SDS011;27322;49.488;8.480;2022-08-23T03:29:22;3.78;;;1.55;;
41629;SDS011;27322;49.488;8.480;2022-08-23T03:31:47;5.28;;;1.50;;
41629;SDS011;27322;49.488;8.480;2022-08-23T03:34:15;3.05;;;1.42;;
41629;SDS011;27322;49.488;8.480;2022-08-23T03:36:41;4.38;;;1.60;;
41629;SDS011;27322;49.488;8.480;2022-08-23T03:39:06;3.65;;;1.27;;
41629;SDS011;27322;49.488;8.480;2022-08-23T03:41:32;2.85;;;1.40;;
41629;SDS011;27322;49.488;8.480;2022-08-23T03:43:58;3.10;;;1.25;;
41629;SDS011;27322;49.488;8.480;2022-08-23T03:46:23;4.15;;;1.40;;
41629;SDS011;27322;49.488;8.480;2022-08-23T03:48:52;3.00;;;1.38;;
41629;SDS011;27322;49.488;8.480;2022-08-23T03:51:20;3.85;;;1.55;;
41629;SDS011;27322;49.488;8.480;2022-08-23T03:53:47;5.00;;;1.42;;
41629;SDS011;27322;49.488;8.480;2022-08-23T03:56:20;6.18;;;1.65;;
41629;SDS011;27322;49.488;8.480;2022-08-23T03:58:57;8.33;;;2.13;;
41629;SDS011;27322;49.488;8.480;2022-08-23T04:01:24;4.75;;;1.50;;
41629;SDS011;27322;49.488;8.480;2022-08-23T04:03:50;4.35;;;1.40;;
41629;SDS011;27322;49.488;8.480;2022-08-23T04:06:16;5.05;;;1.45;;
41629;SDS011;27322;49.488;8.480;2022-08-23T04:08:43;6.72;;;1.73;;
41629;SDS011;27322;49.488;8.480;2022-08-23T04:11:10;3.25;;;1.40;;
41629;SDS011;27322;49.488;8.480;2022-08-23T04:13:40;3.92;;;1.30;;
41629;SDS011;27322;49.488;8.480;2022-08-23T04:16:07;4.05;;;1.60;;
41629;SDS011;27322;49.488;8.480;2022-08-23T04:18:33;5.07;;;1.48;;
41629;SDS011;27322;49.488;8.480;2022-08-23T04:20:59;3.40;;;1.40;;
41629;SDS011;27322;49.488;8.480;2022-08-23T04:23:29;6.20;;;1.77;;
41629;SDS011;27322;49.488;8.480;2022-08-23T04:25:55;4.32;;;1.40;;
41629;SDS011;27322;49.488;8.480;2022-08-23T04:28:22;4.75;;;1.63;;
41629;SDS011;27322;49.488;8.480;2022-08-23T04:30:48;5.13;;;1.70;;
41629;SDS011;27322;49.488;8.480;2022-08-23T04:33:15;4.43;;;1.50;;
41629;SDS011;27322;49.488;8.480;2022-08-23T04:35:42;5.10;;;1.42;;
41629;SDS011;27322;49.488;8.480;2022-08-23T04:38:08;4.25;;;1.50;;
41629;SDS011;27322;49.488;8.480;2022-08-23T04:40:34;3.70;;;1.60;;
41629;SDS011;27322;49.488;8.480;2022-08-23T04:43:18;3.85;;;1.60;;
41629;SDS011;27322;49.488;8.480;2022-08-23T04:45:44;6.63;;;1.80;;
41629;SDS011;27322;49.488;8.480;2022-08-23T04:48:11;3.17;;;1.35;;
41629;SDS011;27322;49.488;8.480;2022-08-23T04:50:37;3.78;;;1.55;;
41629;SDS011;27322;49.488;8.480;2022-08-23T04:53:04;3.25;;;1.40;;
41629;SDS011;27322;49.488;8.480;2022-08-23T04:55:30;5.28;;;1.90;;
41629;SDS011;27322;49.488;8.480;2022-08-23T04:57:56;4.00;;;1.48;;
41629;SDS011;27322;49.488;8.480;2022-08-23T05:00:21;3.47;;;1.40;;
41629;SDS011;27322;49.488;8.480;2022-08-23T05:02:47;3.22;;;1.45;;
41629;SDS011;27322;49.488;8.480;2022-08-23T05:05:13;3.97;;;1.30;;
41629;SDS011;27322;49.488;8.480;2022-08-23T05:07:39;5.30;;;1.30;;
41629;SDS011;27322;49.488;8.480;2022-08-23T05:10:05;3.90;;;1.65;;
41629;SDS011;27322;49.488;8.480;2022-08-23T05:12:33;5.05;;;1.73;;
41629;SDS011;27322;49.488;8.480;2022-08-23T05:14:59;5.07;;;1.60;;
41629;SDS011;27322;49.488;8.480;2022-08-23T05:17:25;5.55;;;1.70;;
41629;SDS011;27322;49.488;8.480;2022-08-23T05:19:50;5.68;;;1.80;;
41629;SDS011;27322;49.488;8.480;2022-08-23T05:22:16;7.57;;;1.80;;
41629;SDS011;27322;49.488;8.480;2022-08-23T05:24:42;9.20;;;1.58;;
41629;SDS011;27322;49.488;8.480;2022-08-23T05:27:08;4.07;;;1.83;;
41629;SDS011;27322;49.488;8.480;2022-08-23T05:29:34;4.95;;;1.60;;
41629;SDS011;27322;49.488;8.480;2022-08-23T05:32:00;6.90;;;2.00;;
41629;SDS011;27322;49.488;8.480;2022-08-23T05:34:26;6.15;;;1.80;;
41629;SDS011;27322;49.488;8.480;2022-08-23T05:36:52;5.18;;;2.00;;
41629;SDS011;27322;49.488;8.480;2022-08-23T05:39:18;5.22;;;1.83;;
41629;SDS011;27322;49.488;8.480;2022-08-23T05:41:43;4.78;;;1.45;;
41629;SDS011;27322;49.488;8.480;2022-08-23T05:44:09;4.30;;;1.65;;
41629;SDS011;27322;49.488;8.480;2022-08-23T05:46:36;4.70;;;1.50;;
41629;SDS011;27322;49.488;8.480;2022-08-23T05:49:02;5.68;;;1.52;;
41629;SDS011;27322;49.488;8.480;2022-08-23T05:51:30;5.25;;;2.10;;
41629;SDS011;27322;49.488;8.480;2022-08-23T05:54:01;5.30;;;1.80;;
41629;SDS011;27322;49.488;8.480;2022-08-23T05:56:36;6.53;;;1.75;;
41629;SDS011;27322;49.488;8.480;2022-08-23T05:59:05;5.75;;;1.85;;
41629;SDS011;27322;49.488;8.480;2022-08-23T06:01:33;5.07;;;1.73;;
41629;SDS011;27322;49.488;8.480;2022-08-23T06:04:04;4.13;;;1.80;;
41629;SDS011;27322;49.488;8.480;2022-08-23T06:06:31;5.35;;;1.60;;
41629;SDS011;27322;49.488;8.480;2022-08-23T06:08:57;4.57;;;1.65;;
41629;SDS011;27322;49.488;8.480;2022-08-23T06:11:25;5.65;;;1.90;;
41629;SDS011;27322;49.488;8.480;2022-08-23T06:13:54;5.82;;;1.80;;
41629;SDS011;27322;49.488;8.480;2022-08-23T06:16:22;7.50;;;2.08;;
41629;SDS011;27322;49.488;8.480;2022-08-23T06:18:50;5.07;;;2.10;;
41629;SDS011;27322;49.488;8.480;2022-08-23T06:21:17;5.85;;;2.10;;
41629;SDS011;27322;49.488;8.480;2022-08-23T06:23:43;5.82;;;1.90;;
41629;SDS011;27322;49.488;8.480;2022-08-23T06:26:15;5.75;;;1.83;;
41629;SDS011;27322;49.488;8.480;2022-08-23T06:28:46;5.25;;;1.90;;
41629;SDS011;27322;49.488;8.480;2022-08-23T06:31:14;7.18;;;2.13;;
41629;SDS011;27322;49.488;8.480;2022-08-23T06:33:41;9.45;;;2.13;;
41629;SDS011;27322;49.488;8.480;2022-08-23T06:36:08;5.78;;;1.75;;
41629;SDS011;27322;49.488;8.480;2022-08-23T06:38:37;4.75;;;1.65;;
41629;SDS011;27322;49.488;8.480;2022-08-23T06:41:05;6.03;;;1.73;;
41629;SDS011;27322;49.488;8.480;2022-08-23T06:43:33;5.70;;;2.03;;
41629;SDS011;27322;49.488;8.480;2022-08-23T06:46:09;4.45;;;1.90;;
41629;SDS011;27322;49.488;8.480;2022-08-23T06:48:35;4.35;;;1.90;;
41629;SDS011;27322;49.488;8.480;2022-08-23T06:51:01;7.10;;;2.00;;
41629;SDS011;27322;49.488;8.480;2022-08-23T06:53:27;6.80;;;1.63;;
41629;SDS011;27322;49.488;8.480;2022-08-23T06:55:52;6.97;;;2.30;;
41629;SDS011;27322;49.488;8.480;2022-08-23T06:58:18;8.02;;;1.63;;
41629;SDS011;27322;49.488;8.480;2022-08-23T07:00:45;5.65;;;1.60;;
41629;SDS011;27322;49.488;8.480;2022-08-23T07:03:10;8.25;;;1.90;;
41629;SDS011;27322;49.488;8.480;2022-08-23T07:05:36;3.80;;;1.58;;
41629;SDS011;27322;49.488;8.480;2022-08-23T07:08:02;5.40;;;1.58;;
41629;SDS011;27322;49.488;8.480;2022-08-23T07:10:28;6.55;;;1.58;;
41629;SDS011;27322;49.488;8.480;2022-08-23T07:12:53;3.30;;;1.50;;
41629;SDS011;27322;49.488;8.480;2022-08-23T07:15:19;4.65;;;1.52;;
41629;SDS011;27322;49.488;8.480;2022-08-23T07:17:45;5.30;;;1.80;;
41629;SDS011;27322;49.488;8.480;2022-08-23T07:20:11;4.47;;;1.50;;
41629;SDS011;27322;49.488;8.480;2022-08-23T07:22:36;4.22;;;1.30;;
41629;SDS011;27322;49.488;8.480;2022-08-23T07:25:02;3.80;;;1.40;;
41629;SDS011;27322;49.488;8.480;2022-08-23T07:27:28;3.63;;;1.50;;
41629;SDS011;27322;49.488;8.480;2022-08-23T07:29:54;3.85;;;1.40;;
41629;SDS011;27322;49.488;8.480;2022-08-23T07:32:19;4.65;;;1.60;;
41629;SDS011;27322;49.488;8.480;2022-08-23T07:34:45;5.03;;;1.60;;
41629;SDS011;27322;49.488;8.480;2022-08-23T07:37:11;3.97;;;1.60;;
41629;SDS011;27322;49.488;8.480;2022-08-23T07:39:38;4.88;;;1.38;;
41629;SDS011;27322;49.488;8.480;2022-08-23T07:42:06;4.93;;;1.70;;
41629;SDS011;27322;49.488;8.480;2022-08-23T07:44:32;6.68;;;1.35;;
41629;SDS011;27322;49.488;8.480;2022-08-23T07:46:58;4.32;;;1.50;;
41629;SDS011;27322;49.488;8.480;2022-08-23T07:49:24;4.20;;;1.70;;
41629;SDS011;27322;49.488;8.480;2022-08-23T07:51:51;4.28;;;1.80;;
41629;SDS011;27322;49.488;8.480;2022-08-23T07:54:17;4.32;;;1.67;;
41629;SDS011;27322;49.488;8.480;2022-08-23T07:56:46;4.03;;;1.60;;
41629;SDS011;27322;49.488;8.480;2022-08-23T07:59:12;3.80;;;1.52;;
41629;SDS011;27322;49.488;8.480;2022-08-23T08:01:40;5.50;;;1.98;;
41629;SDS011;27322;49.488;8.480;2022-08-23T08:04:07;4.85;;;1.80;;
41629;SDS011;27322;49.488;8.480;2022-08-23T08:06:46;5.57;;;1.90;;
41629;SDS011;27322;49.488;8.480;2022-08-23T08:09:14;4.28;;;1.60;;
41629;SDS011;27322;49.488;8.480;2022-08-23T08:11:43;5.47;;;1.70;;
41629;SDS011;27322;49.488;8.480;2022-08-23T08:14:11;4.97;;;1.73;;
41629;SDS011;27322;49.488;8.480;2022-08-23T08:16:39;4.90;;;1.55;;
41629;SDS011;27322;49.488;8.480;2022-08-23T08:19:09;3.97;;;1.60;;
41629;SDS011;27322;49.488;8.480;2022-08-23T08:21:36;3.20;;;1.60;;
41629;SDS011;27322;49.488;8.480;2022-08-23T08:24:04;4.53;;;1.52;;
41629;SDS011;27322;49.488;8.480;2022-08-23T08:26:30;4.93;;;1.60;;
41629;SDS011;27322;49.488;8.480;2022-08-23T08:28:56;4.50;;;1.50;;
41629;SDS011;27322;49.488;8.480;2022-08-23T08:31:23;5.65;;;1.73;;
41629;SDS011;27322;49.488;8.480;2022-08-23T08:33:50;4.45;;;1.73;;
41629;SDS011;27322;49.488;8.480;2022-08-23T08:39:21;4.93;;;1.70;;
41629;SDS011;27322;49.488;8.480;2022-08-23T08:49:50;4.55;;;1.65;;
41629;SDS011;27322;49.488;8.480;2022-08-23T08:52:28;4.00;;;1.90;;
41629;SDS011;27322;49.488;8.480;2022-08-23T08:57:45;6.47;;;1.80;;
41629;SDS011;27322;49.488;8.480;2022-08-23T09:00:14;5.10;;;1.90;;
41629;SDS011;27322;49.488;8.480;2022-08-23T09:02:43;6.20;;;1.95;;
41629;SDS011;27322;49.488;8.480;2022-08-23T09:05:21;4.43;;;1.73;;
41629;SDS011;27322;49.488;8.480;2022-08-23T09:10:29;4.70;;;1.70;;
41629;SDS011;27322;49.488;8.480;2022-08-23T09:19:13;4.40;;;1.65;;
41629;SDS011;27322;49.488;8.480;2022-08-23T09:21:44;6.70;;;1.85;;
41629;SDS011;27322;49.488;8.480;2022-08-23T09:24:24;6.43;;;2.13;;
41629;SDS011;27322;49.488;8.480;2022-08-23T09:26:51;4.43;;;1.88;;
41629;SDS011;27322;49.488;8.480;2022-08-23T09:29:33;4.70;;;1.75;;
41629;SDS011;27322;49.488;8.480;2022-08-23T09:32:01;6.68;;;2.10;;
41629;SDS011;27322;49.488;8.480;2022-08-23T09:37:06;5.55;;;2.10;;
41629;SDS011;27322;49.488;8.480;2022-08-23T09:39:51;8.13;;;2.25;;
41629;SDS011;27322;49.488;8.480;2022-08-23T09:42:37;3.72;;;1.60;;
41629;SDS011;27322;49.488;8.480;2022-08-23T09:45:05;4.57;;;1.90;;
41629;SDS011;27322;49.488;8.480;2022-08-23T09:47:48;5.25;;;1.80;;
41629;SDS011;27322;49.488;8.480;2022-08-23T09:50:28;3.33;;;1.50;;
41629;SDS011;27322;49.488;8.480;2022-08-23T09:53:11;5.22;;;1.90;;
41629;SDS011;27322;49.488;8.480;2022-08-23T09:55:40;5.88;;;1.95;;
41629;SDS011;27322;49.488;8.480;2022-08-23T10:03:35;5.03;;;1.90;;
41629;SDS011;27322;49.488;8.480;2022-08-23T10:06:01;3.58;;;1.52;;
41629;SDS011;27322;49.488;8.480;2022-08-23T10:08:31;6.35;;;1.65;;
41629;SDS011;27322;49.488;8.480;2022-08-23T10:11:17;7.35;;;2.00;;
41629;SDS011;27322;49.488;8.480;2022-08-23T10:13:47;4.00;;;1.63;;
41629;SDS011;27322;49.488;8.480;2022-08-23T10:19:05;7.38;;;1.67;;
41629;SDS011;27322;49.488;8.480;2022-08-23T10:27:26;7.07;;;1.70;;
41629;SDS011;27322;49.488;8.480;2022-08-23T10:30:07;6.32;;;1.98;;
41629;SDS011;27322;49.488;8.480;2022-08-23T10:32:43;6.10;;;1.85;;
41629;SDS011;27322;49.488;8.480;2022-08-23T10:35:38;7.03;;;2.08;;
41629;SDS011;27322;49.488;8.480;2022-08-23T10:38:33;5.80;;;2.05;;
41629;SDS011;27322;49.488;8.480;2022-08-23T10:41:06;5.13;;;1.80;;
41629;SDS011;27322;49.488;8.480;2022-08-23T10:43:57;5.13;;;1.55;;
41629;SDS011;27322;49.488;8.480;2022-08-23T10:46:25;5.78;;;1.70;;
41629;SDS011;27322;49.488;8.480;2022-08-23T10:48:55;7.57;;;1.95;;
41629;SDS011;27322;49.488;8.480;2022-08-23T10:51:25;8.00;;;1.80;;
41629;SDS011;27322;49.488;8.480;2022-08-23T10:53:56;4.43;;;2.00;;
41629;SDS011;27322;49.488;8.480;2022-08-23T10:56:26;6.85;;;2.03;;
41629;SDS011;27322;49.488;8.480;2022-08-23T11:01:22;5.20;;;1.48;;
41629;SDS011;27322;49.488;8.480;2022-08-23T11:07:00;4.55;;;1.55;;
41629;SDS011;27322;49.488;8.480;2022-08-23T11:09:47;5.78;;;2.00;;
41629;SDS011;27322;49.488;8.480;2022-08-23T11:14:46;5.97;;;1.80;;
41629;SDS011;27322;49.488;8.480;2022-08-23T11:17:34;3.72;;;1.63;;
41629;SDS011;27322;49.488;8.480;2022-08-23T11:20:08;4.65;;;1.80;;
41629;SDS011;27322;49.488;8.480;2022-08-23T11:27:46;4.25;;;1.50;;
41629;SDS011;27322;49.488;8.480;2022-08-23T11:33:07;5.50;;;1.42;;
41629;SDS011;27322;49.488;8.480;2022-08-23T11:35:44;4.65;;;1.42;;
41629;SDS011;27322;49.488;8.480;2022-08-23T11:43:42;3.10;;;1.30;;
41629;SDS011;27322;49.488;8.480;2022-08-23T11:46:25;5.25;;;1.60;;
41629;SDS011;27322;49.488;8.480;2022-08-23T11:49:02;6.40;;;1.60;;
41629;SDS011;27322;49.488;8.480;2022-08-23T12:08:46;3.22;;;1.30;;
41629;SDS011;27322;49.488;8.480;2022-08-23T12:11:15;3.67;;;1.58;;
41629;SDS011;27322;49.488;8.480;2022-08-23T12:13:45;15.10;;;2.28;;
41629;SDS011;27322;49.488;8.480;2022-08-23T12:21:21;3.83;;;1.70;;
41629;SDS011;27322;49.488;8.480;2022-08-23T12:23:57;5.28;;;1.55;;
41629;SDS011;27322;49.488;8.480;2022-08-23T12:29:01;6.20;;;1.70;;
41629;SDS011;27322;49.488;8.480;2022-08-23T12:34:07;5.13;;;1.80;;
41629;SDS011;27322;49.488;8.480;2022-08-23T12:39:21;4.45;;;1.52;;
41629;SDS011;27322;49.488;8.480;2022-08-23T12:44:30;5.53;;;1.77;;
41629;SDS011;27322;49.488;8.480;2022-08-23T12:47:02;5.28;;;1.70;;
41629;SDS011;27322;49.488;8.480;2022-08-23T12:49:35;6.18;;;1.65;;
41629;SDS011;27322;49.488;8.480;2022-08-23T12:52:04;5.45;;;1.80;;
41629;SDS011;27322;49.488;8.480;2022-08-23T12:54:39;4.57;;;1.70;;
41629;SDS011;27322;49.488;8.480;2022-08-23T12:57:14;3.50;;;1.60;;
41629;SDS011;27322;49.488;8.480;2022-08-23T13:02:23;4.05;;;1.65;;
41629;SDS011;27322;49.488;8.480;2022-08-23T13:04:57;3.95;;;1.60;;
41629;SDS011;27322;49.488;8.480;2022-08-23T13:07:27;11.27;;;2.00;;
41629;SDS011;27322;49.488;8.480;2022-08-23T13:09:53;9.07;;;2.40;;
41629;SDS011;27322;49.488;8.480;2022-08-23T13:12:20;4.10;;;1.85;;
41629;SDS011;27322;49.488;8.480;2022-08-23T13:14:51;4.63;;;1.70;;
41629;SDS011;27322;49.488;8.480;2022-08-23T13:19:50;4.00;;;1.75;;
41629;SDS011;27322;49.488;8.480;2022-08-23T13:27:35;4.18;;;1.50;;
41629;SDS011;27322;49.488;8.480;2022-08-23T13:32:48;4.10;;;1.90;;
41629;SDS011;27322;49.488;8.480;2022-08-23T13:35:23;4.70;;;1.80;;
41629;SDS011;27322;49.488;8.480;2022-08-23T13:38:10;3.65;;;1.60;;
41629;SDS011;27322;49.488;8.480;2022-08-23T13:43:46;4.93;;;1.58;;
41629;SDS011;27322;49.488;8.480;2022-08-23T13:46:16;3.92;;;1.80;;
41629;SDS011;27322;49.488;8.480;2022-08-23T13:49:02;3.80;;;1.63;;
41629;SDS011;27322;49.488;8.480;2022-08-23T13:51:36;4.38;;;1.50;;
41629;SDS011;27322;49.488;8.480;2022-08-23T13:54:12;7.45;;;2.35;;
41629;SDS011;27322;49.488;8.480;2022-08-23T13:56:44;9.85;;;2.50;;
41629;SDS011;27322;49.488;8.480;2022-08-23T13:59:18;5.32;;;1.60;;
41629;SDS011;27322;49.488;8.480;2022-08-23T14:01:49;3.38;;;1.50;;
41629;SDS011;27322;49.488;8.480;2022-08-23T14:04:15;4.57;;;1.67;;
41629;SDS011;27322;49.488;8.480;2022-08-23T14:06:41;4.45;;;1.52;;
41629;SDS011;27322;49.488;8.480;2022-08-23T14:09:06;4.28;;;1.30;;
41629;SDS011;27322;49.488;8.480;2022-08-23T14:11:32;4.55;;;1.60;;
41629;SDS011;27322;49.488;8.480;2022-08-23T14:13:58;2.85;;;1.23;;
41629;SDS011;27322;49.488;8.480;2022-08-23T14:16:25;5.65;;;1.70;;
41629;SDS011;27322;49.488;8.480;2022-08-23T14:18:53;3.50;;;1.38;;
41629;SDS011;27322;49.488;8.480;2022-08-23T14:21:19;3.45;;;1.30;;
41629;SDS011;27322;49.488;8.480;2022-08-23T14:23:44;3.20;;;1.35;;
41629;SDS011;27322;49.488;8.480;2022-08-23T14:26:11;5.07;;;1.30;;
41629;SDS011;27322;49.488;8.480;2022-08-23T14:28:41;3.50;;;1.30;;
41629;SDS011;27322;49.488;8.480;2022-08-23T14:31:08;4.03;;;1.30;;
41629;SDS011;27322;49.488;8.480;2022-08-23T14:33:34;5.05;;;1.50;;
41629;SDS011;27322;49.488;8.480;2022-08-23T14:35:59;2.90;;;1.20;;
41629;SDS011;27322;49.488;8.480;2022-08-23T14:38:25;4.22;;;1.30;;
41629;SDS011;27322;49.488;8.480;2022-08-23T14:40:58;3.15;;;1.40;;
41629;SDS011;27322;49.488;8.480;2022-08-23T14:43:27;4.22;;;1.52;;
41629;SDS011;27322;49.488;8.480;2022-08-23T14:45:54;3.13;;;1.30;;
41629;SDS011;27322;49.488;8.480;2022-08-23T14:48:21;4.15;;;1.33;;
41629;SDS011;27322;49.488;8.480;2022-08-23T14:50:50;3.08;;;1.23;;
41629;SDS011;27322;49.488;8.480;2022-08-23T14:53:16;3.75;;;1.35;;
41629;SDS011;27322;49.488;8.480;2022-08-23T14:55:57;2.85;;;1.30;;
41629;SDS011;27322;49.488;8.480;2022-08-23T14:58:23;4.97;;;1.52;;
41629;SDS011;27322;49.488;8.480;2022-08-23T15:00:49;3.63;;;1.50;;
41629;SDS011;27322;49.488;8.480;2022-08-23T15:03:25;3.40;;;1.50;;
41629;SDS011;27322;49.488;8.480;2022-08-23T15:05:51;3.88;;;1.40;;
41629;SDS011;27322;49.488;8.480;2022-08-23T15:08:18;4.15;;;1.77;;
41629;SDS011;27322;49.488;8.480;2022-08-23T15:10:45;5.07;;;2.15;;
41629;SDS011;27322;49.488;8.480;2022-08-23T15:13:10;5.75;;;1.60;;
41629;SDS011;27322;49.488;8.480;2022-08-23T15:15:36;4.07;;;1.92;;
41629;SDS011;27322;49.488;8.480;2022-08-23T15:18:05;3.20;;;1.42;;
41629;SDS011;27322;49.488;8.480;2022-08-23T15:20:34;3.28;;;1.60;;
41629;SDS011;27322;49.488;8.480;2022-08-23T15:23:03;5.53;;;1.70;;
41629;SDS011;27322;49.488;8.480;2022-08-23T15:25:30;4.90;;;1.60;;
41629;SDS011;27322;49.488;8.480;2022-08-23T15:27:59;3.65;;;1.50;;
41629;SDS011;27322;49.488;8.480;2022-08-23T15:30:28;3.70;;;1.52;;
41629;SDS011;27322;49.488;8.480;2022-08-23T15:32:54;4.47;;;1.50;;
41629;SDS011;27322;49.488;8.480;2022-08-23T15:35:20;4.45;;;1.60;;
41629;SDS011;27322;49.488;8.480;2022-08-23T15:37:46;3.78;;;1.63;;
41629;SDS011;27322;49.488;8.480;2022-08-23T15:40:13;3.40;;;1.55;;
41629;SDS011;27322;49.488;8.480;2022-08-23T15:42:39;3.85;;;1.60;;
41629;SDS011;27322;49.488;8.480;2022-08-23T15:45:05;5.38;;;1.60;;
41629;SDS011;27322;49.488;8.480;2022-08-23T15:47:33;5.32;;;1.77;;
41629;SDS011;27322;49.488;8.480;2022-08-23T15:50:07;6.32;;;1.50;;
41629;SDS011;27322;49.488;8.480;2022-08-23T15:52:33;4.43;;;1.50;;
41629;SDS011;27322;49.488;8.480;2022-08-23T15:54:58;3.40;;;1.60;;
41629;SDS011;27322;49.488;8.480;2022-08-23T15:57:24;3.35;;;1.60;;
41629;SDS011;27322;49.488;8.480;2022-08-23T15:59:53;4.25;;;1.45;;
41629;SDS011;27322;49.488;8.480;2022-08-23T16:02:19;3.90;;;1.42;;
41629;SDS011;27322;49.488;8.480;2022-08-23T16:04:45;3.10;;;1.20;;
41629;SDS011;27322;49.488;8.480;2022-08-23T16:07:13;4.28;;;1.73;;
41629;SDS011;27322;49.488;8.480;2022-08-23T16:09:40;2.83;;;1.50;;
41629;SDS011;27322;49.488;8.480;2022-08-23T16:12:06;2.95;;;1.50;;
41629;SDS011;27322;49.488;8.480;2022-08-23T16:14:32;3.72;;;1.60;;
41629;SDS011;27322;49.488;8.480;2022-08-23T16:16:59;3.65;;;1.35;;
41629;SDS011;27322;49.488;8.480;2022-08-23T16:19:25;3.88;;;1.40;;
41629;SDS011;27322;49.488;8.480;2022-08-23T16:21:52;3.80;;;1.38;;
41629;SDS011;27322;49.488;8.480;2022-08-23T16:24:18;4.13;;;1.52;;
41629;SDS011;27322;49.488;8.480;2022-08-23T16:26:45;5.63;;;1.67;;
41629;SDS011;27322;49.488;8.480;2022-08-23T16:29:12;3.65;;;1.52;;
41629;SDS011;27322;49.488;8.480;2022-08-23T16:31:43;3.50;;;1.40;;
41629;SDS011;27322;49.488;8.480;2022-08-23T16:34:11;3.20;;;1.50;;
41629;SDS011;27322;49.488;8.480;2022-08-23T16:36:39;3.20;;;1.67;;
41629;SDS011;27322;49.488;8.480;2022-08-23T16:39:07;3.95;;;1.40;;
41629;SDS011;27322;49.488;8.480;2022-08-23T16:41:33;3.15;;;1.75;;
41629;SDS011;27322;49.488;8.480;2022-08-23T16:43:59;4.05;;;1.67;;
41629;SDS011;27322;49.488;8.480;2022-08-23T16:46:25;3.90;;;1.60;;
41629;SDS011;27322;49.488;8.480;2022-08-23T16:48:52;3.88;;;1.60;;
41629;SDS011;27322;49.488;8.480;2022-08-23T16:51:18;4.18;;;1.63;;